METAR Data
IDs: Format: Raw Decoded Include TAF

Data at: 0648 UTC 03 Aug 2021

KPSP 030553Z 31007KT 10SM CLR 38/11 A2986 RMK AO2 SLP106 T03830106 10467 20383 50014
KPSP 030453Z 32013KT 10SM CLR 39/11 A2986 RMK AO2 SLP107 T03940111
KPSP 030353Z VRB03KT 10SM CLR 41/12 A2984 RMK AO2 SLP100 T04060117
KPSP 030253Z 31010KT 10SM CLR 42/13 A2982 RMK AO2 SLP092 T04170133 55000
KPSP 030153Z 31013KT 10SM CLR 43/15 A2981 RMK AO2 SLP088 T04330150
KPSP 030053Z 33014G18KT 10SM CLR 46/17 A2981 RMK AO2 SLP087 T04560172
KPSP 022353Z 32012KT 10SM CLR 47/17 A2982 RMK AO2 SLP092 T04670172 10472 20417 56021
KPSP 022253Z 30012G21KT 10SM CLR 47/18 A2983 RMK AO2 SLP097 T04670178
KPSP 022223Z VRB03KT 10SM CLR 45/17 A2985 RMK AO2 T04500167
KPSP 022153Z AUTO VRB03KT 10SM CLR 46/17 A2986 RMK AO2 SLP105 T04560172
KPSP 022104Z 10011KT 10SM CLR 46/17 A2988 RMK AO2 T04610167
KPSP 022053Z VRB05KT 10SM CLR 45/17 A2988 RMK AO2 SLP113 T04500167 58020
KPSP 021953Z VRB05KT 10SM CLR 44/16 A2991 RMK AO2 SLP120 T04440156
KPSP 021853Z 32008G15KT 10SM CLR 44/15 A2993 RMK AO2 SLP127 T04390150
KPSP 021753Z VRB04KT 10SM CLR 42/13 A2994 RMK AO2 SLP133 T04220128 10422 20289 58009
KPSP 021653Z 00000KT 10SM CLR 39/11 A2996 RMK AO2 SLP138 T03940106
KPSP 021553Z 00000KT 10SM CLR 36/12 A2997 RMK AO2 SLP142 T03610117
KPSP 021453Z 00000KT 10SM CLR 34/11 A2997 RMK AO2 SLP143 T03390106 51012
KPSP 021353Z 00000KT 10SM CLR 31/13 A2996 RMK AO2 SLP140 T03060133 $
KPSP 021253Z 00000KT 10SM CLR 29/13 A2995 RMK AO2 SLP136 T02940133 $
KPSP 021153Z AUTO 00000KT 10SM CLR 31/09 A2993 RMK AO2 SLP130 T03110094 10372 20300 53003 $
KPSP 021053Z AUTO 00000KT 10SM CLR 31/12 A2992 RMK AO2 SLP127 T03110117 $
KPSP 020953Z AUTO 20004KT 10SM CLR 31/12 A2992 RMK AO2 SLP126 T03110122 $
KPSP 020853Z AUTO 18003KT 10SM CLR 32/12 A2992 RMK AO2 SLP127 T03220117 51005 $
KPSP 020753Z AUTO 00000KT 10SM CLR 34/11 A2992 RMK AO2 SLP125 T03390111 404560294 $
KPSP 020653Z AUTO 15007KT 10SM CLR 35/11 A2992 RMK AO2 SLP126 T03500106 $
KPSP 020553Z 30005KT 10SM CLR 38/11 A2991 RMK AO2 SLP121 T03780106 10450 20378 53016 $
KPSP 020453Z 32012KT 10SM CLR 39/12 A2990 RMK AO2 SLP118 T03890117 $
KPSP 020353Z 32010G20KT 10SM CLR 39/12 A2987 RMK AO2 SLP109 T03890117 $
KPSP 020253Z 32014KT 10SM CLR 40/13 A2986 RMK AO2 SLP106 T04000128 55001 $
KPSP 020153Z 31013G20KT 10SM CLR 42/14 A2985 RMK AO2 SLP101 T04220144 $
KPSP 020053Z 32013G24KT 10SM CLR 44/16 A2984 RMK AO2 SLP100 T04390161 $
KPSP 012353Z 32012KT 10SM CLR 44/17 A2986 RMK AO2 SLP106 T04390167 10456 20394 58016 $
KPSP 012253Z VRB04KT 10SM CLR 44/16 A2988 RMK AO2 SLP113 T04390161 $
KPSP 012153Z 00000KT 10SM CLR 44/17 A2990 RMK AO2 SLP119 T04390167 $
KPSP 012053Z 13009KT 10SM CLR 44/16 A2991 RMK AO2 SLP122 T04390161 58021 $
KPSP 012006Z VRB06KT 10SM CLR 43/15 A2993 RMK AO2 T04280150 $
KPSP 011953Z 12006KT 10SM CLR 43/15 A2993 RMK AO2 SLP130 T04280150 $
KPSP 011853Z 15005KT 10SM CLR 42/14 A2995 RMK AO2 SLP137 T04170139 $